2NY5 weather

Strong Memorial Hospital Heliport
Rochester, New York, United States

Public forecast

Using degrees Fahrenheit for public forecast. Weather courtesy of forecast.io.

Closest aviation weather report (METAR) to Strong Memorial Hospital Heliport

Closest report is Greater Rochester International Airport, 2.2 nm (4.0 km) W. Retrieved 2019/12/15 04:11 UTC (40 minutes ago):

KROC 150411Z 26014G23KT 8SM SCT012 OVC020 02/00 A2942

Closest aviation forecast (TAF) to Strong Memorial Hospital Heliport

Forecast is more than 6 hours old.

Closest forecast is Greater Rochester International Airport, 2.2 nm (4.0 km) W. Retrieved 2019/12/14 18:36 UTC (10 hours ago):

TAF KROC 141735Z 1418/1518 33010KT 2SM -RA BR OVC005 FM142000 30010KT 2SM -RASN BR OVC004 FM142200 28015G21KT 3/4SM -SN BR OVC004 FM150300 27019G27KT 1 1/2SM -SN OVC007 FM150600 27020G30KT P6SM VCSH OVC015 FM151400 27019G34KT P6SM OVC040